الصفحة الرئيسية
METAR-TAF:

METAR-TAF

مطار :

Meeker Airport

Meeker, كولورادو, الولايات المتحدة

دائرة عرض: 40-02-32N, خط طول: 107-53-23W, ارتفاع: 1948 متر

مراقبة الطقس الحالي

تاريخ ووقت الإصدار 46 دقيقة قبل الساعة 15:53UTC
ريح 4 عقدة من الشرق
درجة الحرارة 13°درجة مئوية
الرطوبة 47%
ضغط 1023 hPa
الرؤية: 16.1 كم
سماء صافية

METAR: KEEO 251553Z AUTO 09004KT 10SM CLR 13/02 A3021 RMK AO2 SLP167 T01280022

زمن: 10:39 (16:39 UTC)


TAF: مفقودة

أرصاد الطقس والتوقعات من أكثر من 4000 مطار (تقارير الطقس للمطار METAR والتنبؤ بالطقس بالمطارTAF).

المحطات المتاحة هي النقط الصفراء والحمراء على الخريطة.

حرك المؤشر فوق النقطة لمعرفة اسم المحطة.

ثم انقر لمعرفة أرصاد وتوقعات الطقس.

لتغيير الخارطة: اضغط على الأزرار الخضراء مع رمز الصليب الأسود للتكبير. على الزر الأخضر مع شرطة للتصغير، أو على الأسهم الخضراء للخرائط المجاورة.


METAR-TAF: